Terminal Aerodrome Forecast
Issued by NWS

Current Version | Previous Version | Graphics & Text | Print | Product List | Glossary On
Versions: 1 2 3 4 5 6 7 8 9 10 11 12 13 14 15 16 17 18 19 20 21 22
000
FTUS41 KRLX 291100
TAFCKB
TAF
KCKB 291140Z 2912/3012 00000KT P6SM SKC
     FM291900 23006KT P6SM SCT250
     FM300400 20006KT P6SM BKN025
     FM300500 21009KT 5SM BR BKN020
     FM300600 21011G17KT 5SM -SHRA BR OVC020
     FM301100 25010KT 6SM -SHRA BR BKN020=

USA.gov is the U.S. government's official web portal to all federal, state and local government web resources and services.